sensor_id;sensor_type;location;lat;lon;timestamp;temperature;humidity
674;DHT22;319;48.764;9.174;2022-08-01T00:02:12;23.30;76.70
674;DHT22;319;48.764;9.174;2022-08-01T00:04:39;23.20;77.20
674;DHT22;319;48.764;9.174;2022-08-01T00:07:06;23.20;76.70
674;DHT22;319;48.764;9.174;2022-08-01T00:09:32;23.30;77.50
674;DHT22;319;48.764;9.174;2022-08-01T00:12:00;23.20;77.00
674;DHT22;319;48.764;9.174;2022-08-01T00:14:27;23.10;77.50
674;DHT22;319;48.764;9.174;2022-08-01T00:16:54;23.10;78.10
674;DHT22;319;48.764;9.174;2022-08-01T00:19:20;23.10;77.70
674;DHT22;319;48.764;9.174;2022-08-01T00:21:47;23.00;78.00
674;DHT22;319;48.764;9.174;2022-08-01T00:24:14;23.00;78.30
674;DHT22;319;48.764;9.174;2022-08-01T00:26:40;23.00;78.10
674;DHT22;319;48.764;9.174;2022-08-01T00:29:09;23.00;78.30
674;DHT22;319;48.764;9.174;2022-08-01T00:31:35;23.00;78.60
674;DHT22;319;48.764;9.174;2022-08-01T00:34:02;23.00;78.70
674;DHT22;319;48.764;9.174;2022-08-01T00:36:29;22.90;78.50
674;DHT22;319;48.764;9.174;2022-08-01T00:38:56;22.90;78.70
674;DHT22;319;48.764;9.174;2022-08-01T00:41:22;22.90;79.00
674;DHT22;319;48.764;9.174;2022-08-01T00:43:49;22.90;79.10
674;DHT22;319;48.764;9.174;2022-08-01T00:46:17;22.90;79.00
674;DHT22;319;48.764;9.174;2022-08-01T00:48:44;22.90;79.00
674;DHT22;319;48.764;9.174;2022-08-01T00:51:11;22.90;78.80
674;DHT22;319;48.764;9.174;2022-08-01T00:53:39;23.00;78.90
674;DHT22;319;48.764;9.174;2022-08-01T00:56:06;23.00;79.80
674;DHT22;319;48.764;9.174;2022-08-01T00:58:33;23.00;78.90
674;DHT22;319;48.764;9.174;2022-08-01T01:01:00;23.00;78.80
674;DHT22;319;48.764;9.174;2022-08-01T01:03:28;23.00;78.70
674;DHT22;319;48.764;9.174;2022-08-01T01:06:01;22.90;78.90
674;DHT22;319;48.764;9.174;2022-08-01T01:08:35;22.90;79.00
674;DHT22;319;48.764;9.174;2022-08-01T01:11:08;22.90;78.90
674;DHT22;319;48.764;9.174;2022-08-01T01:13:38;22.90;79.00
674;DHT22;319;48.764;9.174;2022-08-01T01:16:12;22.80;79.20
674;DHT22;319;48.764;9.174;2022-08-01T01:18:45;22.80;79.30
674;DHT22;319;48.764;9.174;2022-08-01T01:21:31;22.90;79.50
674;DHT22;319;48.764;9.174;2022-08-01T01:24:10;22.80;80.00
674;DHT22;319;48.764;9.174;2022-08-01T01:26:43;22.80;79.50
674;DHT22;319;48.764;9.174;2022-08-01T01:29:16;22.80;79.70
674;DHT22;319;48.764;9.174;2022-08-01T01:31:49;22.80;80.20
674;DHT22;319;48.764;9.174;2022-08-01T01:34:19;22.70;80.50
674;DHT22;319;48.764;9.174;2022-08-01T01:36:48;22.70;80.80
674;DHT22;319;48.764;9.174;2022-08-01T01:39:16;22.70;80.90
674;DHT22;319;48.764;9.174;2022-08-01T01:41:45;22.70;81.00
674;DHT22;319;48.764;9.174;2022-08-01T01:44:14;22.70;81.40
674;DHT22;319;48.764;9.174;2022-08-01T01:46:42;22.70;81.60
674;DHT22;319;48.764;9.174;2022-08-01T01:49:10;22.60;81.50
674;DHT22;319;48.764;9.174;2022-08-01T01:51:38;22.60;82.00
674;DHT22;319;48.764;9.174;2022-08-01T01:54:07;22.60;82.20
674;DHT22;319;48.764;9.174;2022-08-01T01:56:35;22.60;82.30
674;DHT22;319;48.764;9.174;2022-08-01T01:59:19;22.60;82.50
674;DHT22;319;48.764;9.174;2022-08-01T02:01:47;22.60;82.70
674;DHT22;319;48.764;9.174;2022-08-01T02:04:16;22.60;82.70
674;DHT22;319;48.764;9.174;2022-08-01T02:06:43;22.60;83.10
674;DHT22;319;48.764;9.174;2022-08-01T02:09:11;22.60;83.10
674;DHT22;319;48.764;9.174;2022-08-01T02:11:41;22.60;83.60
674;DHT22;319;48.764;9.174;2022-08-01T02:14:09;22.60;83.80
674;DHT22;319;48.764;9.174;2022-08-01T02:16:40;22.60;83.90
674;DHT22;319;48.764;9.174;2022-08-01T02:19:08;22.60;83.70
674;DHT22;319;48.764;9.174;2022-08-01T02:21:40;22.60;84.20
674;DHT22;319;48.764;9.174;2022-08-01T02:24:17;22.50;84.00
674;DHT22;319;48.764;9.174;2022-08-01T02:26:48;22.50;84.60
674;DHT22;319;48.764;9.174;2022-08-01T02:29:21;22.50;84.80
674;DHT22;319;48.764;9.174;2022-08-01T02:31:52;22.50;84.90
674;DHT22;319;48.764;9.174;2022-08-01T02:34:20;22.40;85.00
674;DHT22;319;48.764;9.174;2022-08-01T02:36:48;22.40;85.40
674;DHT22;319;48.764;9.174;2022-08-01T02:39:18;22.40;85.70
674;DHT22;319;48.764;9.174;2022-08-01T02:41:47;22.30;86.00
674;DHT22;319;48.764;9.174;2022-08-01T02:44:21;22.20;86.30
674;DHT22;319;48.764;9.174;2022-08-01T02:46:54;22.20;86.60
674;DHT22;319;48.764;9.174;2022-08-01T02:49:24;22.20;87.30
674;DHT22;319;48.764;9.174;2022-08-01T02:51:53;22.30;87.50
674;DHT22;319;48.764;9.174;2022-08-01T02:54:22;22.20;87.60
674;DHT22;319;48.764;9.174;2022-08-01T02:56:50;22.20;87.80
674;DHT22;319;48.764;9.174;2022-08-01T02:59:19;22.20;87.80
674;DHT22;319;48.764;9.174;2022-08-01T03:01:53;22.20;88.00
674;DHT22;319;48.764;9.174;2022-08-01T03:04:22;22.20;88.40
674;DHT22;319;48.764;9.174;2022-08-01T03:06:50;22.20;88.90
674;DHT22;319;48.764;9.174;2022-08-01T03:09:18;22.20;89.00
674;DHT22;319;48.764;9.174;2022-08-01T03:11:47;22.10;89.20
674;DHT22;319;48.764;9.174;2022-08-01T03:14:16;22.10;90.10
674;DHT22;319;48.764;9.174;2022-08-01T03:16:45;22.10;90.00
674;DHT22;319;48.764;9.174;2022-08-01T03:19:15;22.10;90.10
674;DHT22;319;48.764;9.174;2022-08-01T03:21:44;22.10;90.20
674;DHT22;319;48.764;9.174;2022-08-01T03:24:13;22.10;90.30
674;DHT22;319;48.764;9.174;2022-08-01T03:26:41;22.10;90.40
674;DHT22;319;48.764;9.174;2022-08-01T03:29:12;22.10;90.50
674;DHT22;319;48.764;9.174;2022-08-01T03:31:39;22.00;90.70
674;DHT22;319;48.764;9.174;2022-08-01T03:34:09;22.00;90.90
674;DHT22;319;48.764;9.174;2022-08-01T03:36:42;22.00;90.80
674;DHT22;319;48.764;9.174;2022-08-01T03:39:11;22.10;90.90
674;DHT22;319;48.764;9.174;2022-08-01T03:41:41;22.00;91.00
674;DHT22;319;48.764;9.174;2022-08-01T03:44:14;22.10;91.10
674;DHT22;319;48.764;9.174;2022-08-01T03:46:43;22.10;91.00
674;DHT22;319;48.764;9.174;2022-08-01T03:49:14;22.10;91.20
674;DHT22;319;48.764;9.174;2022-08-01T03:51:45;22.00;91.30
674;DHT22;319;48.764;9.174;2022-08-01T03:54:16;22.00;91.40
674;DHT22;319;48.764;9.174;2022-08-01T03:56:44;22.00;91.40
674;DHT22;319;48.764;9.174;2022-08-01T03:59:12;22.00;91.50
674;DHT22;319;48.764;9.174;2022-08-01T04:01:40;22.00;91.50
674;DHT22;319;48.764;9.174;2022-08-01T04:04:07;22.00;91.60
674;DHT22;319;48.764;9.174;2022-08-01T04:06:37;22.00;91.80
674;DHT22;319;48.764;9.174;2022-08-01T04:09:06;22.00;91.90
674;DHT22;319;48.764;9.174;2022-08-01T04:11:33;22.00;91.90
674;DHT22;319;48.764;9.174;2022-08-01T04:14:00;22.00;91.90
674;DHT22;319;48.764;9.174;2022-08-01T04:16:27;22.00;92.10
674;DHT22;319;48.764;9.174;2022-08-01T04:18:54;22.10;92.10
674;DHT22;319;48.764;9.174;2022-08-01T04:21:24;22.10;92.20
674;DHT22;319;48.764;9.174;2022-08-01T04:23:54;22.10;92.10
674;DHT22;319;48.764;9.174;2022-08-01T04:26:24;22.20;92.20
674;DHT22;319;48.764;9.174;2022-08-01T04:28:52;22.20;92.10
674;DHT22;319;48.764;9.174;2022-08-01T04:31:21;22.20;92.00
674;DHT22;319;48.764;9.174;2022-08-01T04:33:53;22.30;92.00
674;DHT22;319;48.764;9.174;2022-08-01T04:36:23;22.40;92.00
674;DHT22;319;48.764;9.174;2022-08-01T04:38:54;22.40;92.10
674;DHT22;319;48.764;9.174;2022-08-01T04:41:24;22.50;91.90
674;DHT22;319;48.764;9.174;2022-08-01T04:43:51;22.50;91.90
674;DHT22;319;48.764;9.174;2022-08-01T04:46:19;22.60;92.00
674;DHT22;319;48.764;9.174;2022-08-01T04:48:47;22.60;91.90
674;DHT22;319;48.764;9.174;2022-08-01T04:51:15;22.50;92.00
674;DHT22;319;48.764;9.174;2022-08-01T04:53:43;22.60;92.10
674;DHT22;319;48.764;9.174;2022-08-01T04:56:11;22.60;92.10
674;DHT22;319;48.764;9.174;2022-08-01T04:58:39;22.60;92.30
674;DHT22;319;48.764;9.174;2022-08-01T05:01:06;22.60;92.40
674;DHT22;319;48.764;9.174;2022-08-01T05:03:33;22.50;92.40
674;DHT22;319;48.764;9.174;2022-08-01T05:06:00;22.60;92.50
674;DHT22;319;48.764;9.174;2022-08-01T05:08:27;22.60;92.60
674;DHT22;319;48.764;9.174;2022-08-01T05:10:53;22.70;92.90
674;DHT22;319;48.764;9.174;2022-08-01T05:13:20;22.70;92.70
674;DHT22;319;48.764;9.174;2022-08-01T05:15:48;22.80;93.00
674;DHT22;319;48.764;9.174;2022-08-01T05:18:15;22.80;93.00
674;DHT22;319;48.764;9.174;2022-08-01T05:20:42;23.00;92.70
674;DHT22;319;48.764;9.174;2022-08-01T05:23:09;23.10;92.60
674;DHT22;319;48.764;9.174;2022-08-01T05:25:36;23.30;92.40
674;DHT22;319;48.764;9.174;2022-08-01T05:28:04;23.50;91.90
674;DHT22;319;48.764;9.174;2022-08-01T05:30:30;23.70;91.50
674;DHT22;319;48.764;9.174;2022-08-01T05:32:58;23.80;91.20
674;DHT22;319;48.764;9.174;2022-08-01T05:35:25;24.10;91.10
674;DHT22;319;48.764;9.174;2022-08-01T05:37:52;24.10;90.90
674;DHT22;319;48.764;9.174;2022-08-01T05:40:19;24.20;90.90
674;DHT22;319;48.764;9.174;2022-08-01T05:42:45;24.30;91.00
674;DHT22;319;48.764;9.174;2022-08-01T05:45:12;24.40;90.90
674;DHT22;319;48.764;9.174;2022-08-01T05:47:39;24.40;91.00
674;DHT22;319;48.764;9.174;2022-08-01T05:50:08;24.40;91.00
674;DHT22;319;48.764;9.174;2022-08-01T05:52:35;24.40;91.10
674;DHT22;319;48.764;9.174;2022-08-01T05:55:02;24.40;91.20
674;DHT22;319;48.764;9.174;2022-08-01T05:57:30;24.30;91.30
674;DHT22;319;48.764;9.174;2022-08-01T05:59:56;24.30;91.30
674;DHT22;319;48.764;9.174;2022-08-01T06:02:23;24.40;91.30
674;DHT22;319;48.764;9.174;2022-08-01T06:04:50;24.50;91.30
674;DHT22;319;48.764;9.174;2022-08-01T06:07:18;24.60;91.50
674;DHT22;319;48.764;9.174;2022-08-01T06:09:45;24.80;90.80
674;DHT22;319;48.764;9.174;2022-08-01T06:12:11;24.90;90.70
674;DHT22;319;48.764;9.174;2022-08-01T06:14:38;25.00;90.50
674;DHT22;319;48.764;9.174;2022-08-01T06:17:05;25.10;90.40
674;DHT22;319;48.764;9.174;2022-08-01T06:19:31;25.20;90.30
674;DHT22;319;48.764;9.174;2022-08-01T06:21:58;25.30;90.60
674;DHT22;319;48.764;9.174;2022-08-01T06:24:26;25.50;90.10
674;DHT22;319;48.764;9.174;2022-08-01T06:26:53;25.60;90.00
674;DHT22;319;48.764;9.174;2022-08-01T06:29:19;25.90;89.60
674;DHT22;319;48.764;9.174;2022-08-01T06:31:46;26.50;87.80
674;DHT22;319;48.764;9.174;2022-08-01T06:34:13;27.10;85.20
674;DHT22;319;48.764;9.174;2022-08-01T06:36:40;28.10;83.50
674;DHT22;319;48.764;9.174;2022-08-01T06:39:07;29.30;79.00
674;DHT22;319;48.764;9.174;2022-08-01T06:41:35;30.40;74.10
674;DHT22;319;48.764;9.174;2022-08-01T06:44:02;31.60;69.80
674;DHT22;319;48.764;9.174;2022-08-01T06:46:29;32.30;65.50
674;DHT22;319;48.764;9.174;2022-08-01T06:48:56;33.40;62.30
674;DHT22;319;48.764;9.174;2022-08-01T06:51:23;34.50;58.40
674;DHT22;319;48.764;9.174;2022-08-01T06:53:49;35.70;55.50
674;DHT22;319;48.764;9.174;2022-08-01T06:56:16;36.80;52.10
674;DHT22;319;48.764;9.174;2022-08-01T06:58:44;37.60;49.00
674;DHT22;319;48.764;9.174;2022-08-01T07:01:11;37.90;47.10
674;DHT22;319;48.764;9.174;2022-08-01T07:03:38;38.30;46.10
674;DHT22;319;48.764;9.174;2022-08-01T07:06:05;38.80;45.30
674;DHT22;319;48.764;9.174;2022-08-01T07:08:31;38.90;43.70
674;DHT22;319;48.764;9.174;2022-08-01T07:10:58;38.90;43.40
674;DHT22;319;48.764;9.174;2022-08-01T07:13:25;38.80;43.20
674;DHT22;319;48.764;9.174;2022-08-01T07:15:53;39.10;42.70
674;DHT22;319;48.764;9.174;2022-08-01T07:18:20;39.40;41.80
674;DHT22;319;48.764;9.174;2022-08-01T07:20:47;39.10;41.80
674;DHT22;319;48.764;9.174;2022-08-01T07:23:14;39.10;41.50
674;DHT22;319;48.764;9.174;2022-08-01T07:25:41;38.10;42.30
674;DHT22;319;48.764;9.174;2022-08-01T07:28:08;37.50;43.40
674;DHT22;319;48.764;9.174;2022-08-01T07:30:35;36.40;44.60
674;DHT22;319;48.764;9.174;2022-08-01T07:33:03;35.10;46.90
674;DHT22;319;48.764;9.174;2022-08-01T07:35:30;35.00;47.70
674;DHT22;319;48.764;9.174;2022-08-01T07:37:56;35.20;47.80
674;DHT22;319;48.764;9.174;2022-08-01T07:40:23;35.00;47.50
674;DHT22;319;48.764;9.174;2022-08-01T07:42:53;34.60;48.20
674;DHT22;319;48.764;9.174;2022-08-01T07:45:23;34.40;48.80
674;DHT22;319;48.764;9.174;2022-08-01T07:47:54;34.20;49.80
674;DHT22;319;48.764;9.174;2022-08-01T07:50:44;34.50;49.40
674;DHT22;319;48.764;9.174;2022-08-01T07:53:11;35.10;48.30
674;DHT22;319;48.764;9.174;2022-08-01T07:55:38;35.60;47.40
674;DHT22;319;48.764;9.174;2022-08-01T07:58:05;36.10;46.30
674;DHT22;319;48.764;9.174;2022-08-01T08:00:32;36.20;45.90
674;DHT22;319;48.764;9.174;2022-08-01T08:02:58;35.60;46.30
674;DHT22;319;48.764;9.174;2022-08-01T08:05:25;35.10;47.20
674;DHT22;319;48.764;9.174;2022-08-01T08:07:53;34.50;48.20
674;DHT22;319;48.764;9.174;2022-08-01T08:10:21;34.50;48.50
674;DHT22;319;48.764;9.174;2022-08-01T08:12:47;35.40;47.80
674;DHT22;319;48.764;9.174;2022-08-01T08:15:15;36.30;46.10
674;DHT22;319;48.764;9.174;2022-08-01T08:17:42;36.50;44.80
674;DHT22;319;48.764;9.174;2022-08-01T08:20:09;36.70;44.80
674;DHT22;319;48.764;9.174;2022-08-01T08:22:36;36.80;44.50
674;DHT22;319;48.764;9.174;2022-08-01T08:25:06;36.00;44.70
674;DHT22;319;48.764;9.174;2022-08-01T08:27:33;35.30;46.40
674;DHT22;319;48.764;9.174;2022-08-01T08:30:21;34.20;48.20
674;DHT22;319;48.764;9.174;2022-08-01T08:33:01;33.70;49.80
674;DHT22;319;48.764;9.174;2022-08-01T08:35:28;33.60;50.20
674;DHT22;319;48.764;9.174;2022-08-01T08:37:55;33.70;50.10
674;DHT22;319;48.764;9.174;2022-08-01T08:40:29;34.30;49.10
674;DHT22;319;48.764;9.174;2022-08-01T08:42:56;34.20;49.00
674;DHT22;319;48.764;9.174;2022-08-01T08:45:24;33.70;50.00
674;DHT22;319;48.764;9.174;2022-08-01T08:47:51;33.40;50.10
674;DHT22;319;48.764;9.174;2022-08-01T08:50:18;32.50;51.60
674;DHT22;319;48.764;9.174;2022-08-01T08:52:46;32.50;52.80
674;DHT22;319;48.764;9.174;2022-08-01T08:55:16;31.90;53.30
674;DHT22;319;48.764;9.174;2022-08-01T08:57:44;32.00;53.80
674;DHT22;319;48.764;9.174;2022-08-01T09:00:13;32.10;53.30
674;DHT22;319;48.764;9.174;2022-08-01T09:02:41;32.20;53.60
674;DHT22;319;48.764;9.174;2022-08-01T09:05:10;31.90;54.10
674;DHT22;319;48.764;9.174;2022-08-01T09:07:38;31.60;54.90
674;DHT22;319;48.764;9.174;2022-08-01T09:10:07;31.80;54.90
674;DHT22;319;48.764;9.174;2022-08-01T09:12:35;31.70;54.70
674;DHT22;319;48.764;9.174;2022-08-01T09:15:05;31.80;54.60
674;DHT22;319;48.764;9.174;2022-08-01T09:17:39;31.50;54.70
674;DHT22;319;48.764;9.174;2022-08-01T09:20:07;31.50;55.30
674;DHT22;319;48.764;9.174;2022-08-01T09:22:34;31.10;55.50
674;DHT22;319;48.764;9.174;2022-08-01T09:25:04;30.70;56.80
674;DHT22;319;48.764;9.174;2022-08-01T09:27:32;30.40;57.40
674;DHT22;319;48.764;9.174;2022-08-01T09:30:11;30.40;57.70
674;DHT22;319;48.764;9.174;2022-08-01T09:32:53;30.50;57.70
674;DHT22;319;48.764;9.174;2022-08-01T09:35:25;30.10;58.20
674;DHT22;319;48.764;9.174;2022-08-01T09:38:12;29.90;58.80
674;DHT22;319;48.764;9.174;2022-08-01T09:40:51;30.00;59.00
674;DHT22;319;48.764;9.174;2022-08-01T09:43:20;30.20;59.00
674;DHT22;319;48.764;9.174;2022-08-01T09:45:49;30.40;58.60
674;DHT22;319;48.764;9.174;2022-08-01T09:48:16;30.60;58.30
674;DHT22;319;48.764;9.174;2022-08-01T09:50:45;30.60;58.40
674;DHT22;319;48.764;9.174;2022-08-01T09:53:13;30.50;58.20
674;DHT22;319;48.764;9.174;2022-08-01T09:55:41;30.30;58.70
674;DHT22;319;48.764;9.174;2022-08-01T09:58:08;30.40;59.00
674;DHT22;319;48.764;9.174;2022-08-01T10:00:38;30.20;58.90
674;DHT22;319;48.764;9.174;2022-08-01T10:03:20;29.90;59.40
674;DHT22;319;48.764;9.174;2022-08-01T10:05:47;29.80;59.80
674;DHT22;319;48.764;9.174;2022-08-01T10:08:14;29.70;60.10
674;DHT22;319;48.764;9.174;2022-08-01T10:10:43;29.70;60.50
674;DHT22;319;48.764;9.174;2022-08-01T10:13:29;29.70;61.10
674;DHT22;319;48.764;9.174;2022-08-01T10:15:56;29.70;61.00
674;DHT22;319;48.764;9.174;2022-08-01T10:18:25;29.60;61.30
674;DHT22;319;48.764;9.174;2022-08-01T10:20:53;29.40;61.30
674;DHT22;319;48.764;9.174;2022-08-01T10:23:20;29.40;61.20
674;DHT22;319;48.764;9.174;2022-08-01T10:25:48;29.40;61.70
674;DHT22;319;48.764;9.174;2022-08-01T10:28:18;29.70;61.50
674;DHT22;319;48.764;9.174;2022-08-01T10:30:48;29.90;61.80
674;DHT22;319;48.764;9.174;2022-08-01T10:33:20;30.10;60.40
674;DHT22;319;48.764;9.174;2022-08-01T10:35:51;29.90;59.90
674;DHT22;319;48.764;9.174;2022-08-01T10:38:18;29.80;60.60
674;DHT22;319;48.764;9.174;2022-08-01T10:40:45;29.70;61.10
674;DHT22;319;48.764;9.174;2022-08-01T10:43:12;29.70;60.60
674;DHT22;319;48.764;9.174;2022-08-01T10:45:41;29.90;60.70
674;DHT22;319;48.764;9.174;2022-08-01T10:48:14;29.60;60.40
674;DHT22;319;48.764;9.174;2022-08-01T10:50:45;29.50;60.70
674;DHT22;319;48.764;9.174;2022-08-01T10:53:15;29.40;61.00
674;DHT22;319;48.764;9.174;2022-08-01T10:55:50;29.20;61.70
674;DHT22;319;48.764;9.174;2022-08-01T10:58:22;29.00;62.50
674;DHT22;319;48.764;9.174;2022-08-01T11:00:49;29.00;62.90
674;DHT22;319;48.764;9.174;2022-08-01T11:03:38;28.80;62.70
674;DHT22;319;48.764;9.174;2022-08-01T11:06:05;28.80;63.20
674;DHT22;319;48.764;9.174;2022-08-01T11:08:36;28.60;63.50
674;DHT22;319;48.764;9.174;2022-08-01T11:11:04;28.60;64.10
674;DHT22;319;48.764;9.174;2022-08-01T11:14:00;28.60;64.00
674;DHT22;319;48.764;9.174;2022-08-01T11:16:28;29.00;63.60
674;DHT22;319;48.764;9.174;2022-08-01T11:18:55;29.60;61.80
674;DHT22;319;48.764;9.174;2022-08-01T11:21:22;29.90;60.30
674;DHT22;319;48.764;9.174;2022-08-01T11:24:10;30.10;60.00
674;DHT22;319;48.764;9.174;2022-08-01T11:26:37;30.10;59.70
674;DHT22;319;48.764;9.174;2022-08-01T11:29:13;29.90;59.60
674;DHT22;319;48.764;9.174;2022-08-01T11:31:40;29.70;59.70
674;DHT22;319;48.764;9.174;2022-08-01T11:34:07;29.70;59.90
674;DHT22;319;48.764;9.174;2022-08-01T11:36:34;29.70;60.00
674;DHT22;319;48.764;9.174;2022-08-01T11:39:18;29.80;60.00
674;DHT22;319;48.764;9.174;2022-08-01T11:41:48;29.80;59.40
674;DHT22;319;48.764;9.174;2022-08-01T11:44:23;29.90;59.10
674;DHT22;319;48.764;9.174;2022-08-01T11:46:58;29.80;59.50
674;DHT22;319;48.764;9.174;2022-08-01T11:49:42;29.60;59.40
674;DHT22;319;48.764;9.174;2022-08-01T11:52:11;29.70;60.20
674;DHT22;319;48.764;9.174;2022-08-01T11:54:41;29.80;60.10
674;DHT22;319;48.764;9.174;2022-08-01T11:57:09;29.80;60.10
674;DHT22;319;48.764;9.174;2022-08-01T11:59:39;29.80;59.40
674;DHT22;319;48.764;9.174;2022-08-01T12:02:16;29.90;59.20
674;DHT22;319;48.764;9.174;2022-08-01T12:04:48;30.00;58.80
674;DHT22;319;48.764;9.174;2022-08-01T12:07:15;29.90;58.90
674;DHT22;319;48.764;9.174;2022-08-01T12:09:44;29.90;59.00
674;DHT22;319;48.764;9.174;2022-08-01T12:12:15;29.80;58.90
674;DHT22;319;48.764;9.174;2022-08-01T12:14:43;29.60;59.50
674;DHT22;319;48.764;9.174;2022-08-01T12:17:10;29.50;59.90
674;DHT22;319;48.764;9.174;2022-08-01T12:19:37;29.70;59.90
674;DHT22;319;48.764;9.174;2022-08-01T12:22:10;29.70;59.60
674;DHT22;319;48.764;9.174;2022-08-01T12:24:39;29.90;58.70
674;DHT22;319;48.764;9.174;2022-08-01T12:27:09;30.00;58.20
674;DHT22;319;48.764;9.174;2022-08-01T12:29:37;30.00;58.00
674;DHT22;319;48.764;9.174;2022-08-01T12:32:23;30.00;58.00
674;DHT22;319;48.764;9.174;2022-08-01T12:34:51;29.90;57.80
674;DHT22;319;48.764;9.174;2022-08-01T12:37:19;29.90;57.70
674;DHT22;319;48.764;9.174;2022-08-01T12:39:46;29.80;58.40
674;DHT22;319;48.764;9.174;2022-08-01T12:42:14;29.60;59.30
674;DHT22;319;48.764;9.174;2022-08-01T12:44:44;29.50;59.70
674;DHT22;319;48.764;9.174;2022-08-01T12:47:11;29.60;59.90
674;DHT22;319;48.764;9.174;2022-08-01T12:49:39;29.70;59.70
674;DHT22;319;48.764;9.174;2022-08-01T12:52:07;29.80;59.60
674;DHT22;319;48.764;9.174;2022-08-01T12:55:06;29.80;59.60
674;DHT22;319;48.764;9.174;2022-08-01T12:57:36;29.70;59.20
674;DHT22;319;48.764;9.174;2022-08-01T13:00:14;29.70;59.50
674;DHT22;319;48.764;9.174;2022-08-01T13:02:43;29.70;59.20
674;DHT22;319;48.764;9.174;2022-08-01T13:05:11;29.90;58.60
674;DHT22;319;48.764;9.174;2022-08-01T13:07:41;30.00;59.10
674;DHT22;319;48.764;9.174;2022-08-01T13:10:08;30.20;58.60
674;DHT22;319;48.764;9.174;2022-08-01T13:12:37;30.30;57.90
674;DHT22;319;48.764;9.174;2022-08-01T13:15:22;30.30;57.60
674;DHT22;319;48.764;9.174;2022-08-01T13:17:50;30.30;57.50
674;DHT22;319;48.764;9.174;2022-08-01T13:20:24;30.30;58.00
674;DHT22;319;48.764;9.174;2022-08-01T13:22:51;30.00;58.00
674;DHT22;319;48.764;9.174;2022-08-01T13:25:18;29.90;58.70
674;DHT22;319;48.764;9.174;2022-08-01T13:27:46;29.80;59.30
674;DHT22;319;48.764;9.174;2022-08-01T13:30:15;29.80;59.50
674;DHT22;319;48.764;9.174;2022-08-01T13:32:42;29.80;59.50
674;DHT22;319;48.764;9.174;2022-08-01T13:35:11;29.90;59.60
674;DHT22;319;48.764;9.174;2022-08-01T13:37:40;29.90;59.40
674;DHT22;319;48.764;9.174;2022-08-01T13:40:08;29.80;59.40
674;DHT22;319;48.764;9.174;2022-08-01T13:42:36;29.80;58.90
674;DHT22;319;48.764;9.174;2022-08-01T13:45:07;29.80;58.90
674;DHT22;319;48.764;9.174;2022-08-01T13:47:36;29.90;59.20
674;DHT22;319;48.764;9.174;2022-08-01T13:50:03;30.10;59.50
674;DHT22;319;48.764;9.174;2022-08-01T13:52:30;30.30;59.00
674;DHT22;319;48.764;9.174;2022-08-01T13:54:58;30.30;58.00
674;DHT22;319;48.764;9.174;2022-08-01T13:57:25;30.40;57.80
674;DHT22;319;48.764;9.174;2022-08-01T13:59:51;30.30;58.00
674;DHT22;319;48.764;9.174;2022-08-01T14:02:20;30.40;57.90
674;DHT22;319;48.764;9.174;2022-08-01T14:04:47;30.10;58.20
674;DHT22;319;48.764;9.174;2022-08-01T14:07:13;30.10;58.60
674;DHT22;319;48.764;9.174;2022-08-01T14:09:40;30.20;58.20
674;DHT22;319;48.764;9.174;2022-08-01T14:12:07;30.20;58.10
674;DHT22;319;48.764;9.174;2022-08-01T14:14:34;30.20;58.30
674;DHT22;319;48.764;9.174;2022-08-01T14:17:02;30.20;58.30
674;DHT22;319;48.764;9.174;2022-08-01T14:19:30;30.30;58.30
674;DHT22;319;48.764;9.174;2022-08-01T14:21:57;30.10;58.10
674;DHT22;319;48.764;9.174;2022-08-01T14:24:24;30.00;58.40
674;DHT22;319;48.764;9.174;2022-08-01T14:26:52;30.10;58.20
674;DHT22;319;48.764;9.174;2022-08-01T14:29:19;30.20;58.10
674;DHT22;319;48.764;9.174;2022-08-01T14:31:46;30.00;57.70
674;DHT22;319;48.764;9.174;2022-08-01T14:34:12;30.10;58.10
674;DHT22;319;48.764;9.174;2022-08-01T14:36:41;30.20;58.20
674;DHT22;319;48.764;9.174;2022-08-01T14:39:07;30.30;57.80
674;DHT22;319;48.764;9.174;2022-08-01T14:41:34;30.30;57.90
674;DHT22;319;48.764;9.174;2022-08-01T14:44:01;30.30;58.20
674;DHT22;319;48.764;9.174;2022-08-01T14:46:29;30.30;58.20
674;DHT22;319;48.764;9.174;2022-08-01T14:48:56;30.40;57.90
674;DHT22;319;48.764;9.174;2022-08-01T14:51:22;30.40;58.10
674;DHT22;319;48.764;9.174;2022-08-01T14:53:51;30.40;57.90
674;DHT22;319;48.764;9.174;2022-08-01T14:56:18;30.50;57.90
674;DHT22;319;48.764;9.174;2022-08-01T14:58:45;30.40;57.60
674;DHT22;319;48.764;9.174;2022-08-01T15:01:11;30.50;58.10
674;DHT22;319;48.764;9.174;2022-08-01T15:03:38;30.50;57.70
674;DHT22;319;48.764;9.174;2022-08-01T15:06:06;30.50;57.70
674;DHT22;319;48.764;9.174;2022-08-01T15:08:34;30.60;57.70
674;DHT22;319;48.764;9.174;2022-08-01T15:11:03;30.60;57.30
674;DHT22;319;48.764;9.174;2022-08-01T15:13:29;30.70;57.20
674;DHT22;319;48.764;9.174;2022-08-01T15:15:56;30.40;56.70
674;DHT22;319;48.764;9.174;2022-08-01T15:18:23;30.30;57.10
674;DHT22;319;48.764;9.174;2022-08-01T15:20:50;30.40;57.20
674;DHT22;319;48.764;9.174;2022-08-01T15:23:16;30.50;57.00
674;DHT22;319;48.764;9.174;2022-08-01T15:25:43;30.50;57.00
674;DHT22;319;48.764;9.174;2022-08-01T15:28:12;30.30;57.30
674;DHT22;319;48.764;9.174;2022-08-01T15:30:39;30.40;57.30
674;DHT22;319;48.764;9.174;2022-08-01T15:33:06;30.30;56.90
674;DHT22;319;48.764;9.174;2022-08-01T15:35:33;30.20;57.00
674;DHT22;319;48.764;9.174;2022-08-01T15:38:00;30.30;57.10
674;DHT22;319;48.764;9.174;2022-08-01T15:40:27;30.40;56.50
674;DHT22;319;48.764;9.174;2022-08-01T15:42:54;30.40;56.70
674;DHT22;319;48.764;9.174;2022-08-01T15:45:22;30.30;56.70
674;DHT22;319;48.764;9.174;2022-08-01T15:47:49;30.30;56.90
674;DHT22;319;48.764;9.174;2022-08-01T15:50:16;30.30;56.10
674;DHT22;319;48.764;9.174;2022-08-01T15:52:42;30.20;56.40
674;DHT22;319;48.764;9.174;2022-08-01T15:55:09;30.10;56.10
674;DHT22;319;48.764;9.174;2022-08-01T15:57:36;30.00;56.00
674;DHT22;319;48.764;9.174;2022-08-01T16:00:03;29.80;56.30
674;DHT22;319;48.764;9.174;2022-08-01T16:02:32;29.80;56.60
674;DHT22;319;48.764;9.174;2022-08-01T16:04:58;29.80;56.70
674;DHT22;319;48.764;9.174;2022-08-01T16:07:25;29.90;56.70
674;DHT22;319;48.764;9.174;2022-08-01T16:09:52;30.00;56.80
674;DHT22;319;48.764;9.174;2022-08-01T16:12:18;29.90;56.20
674;DHT22;319;48.764;9.174;2022-08-01T16:14:46;29.90;56.20
674;DHT22;319;48.764;9.174;2022-08-01T16:17:12;29.90;56.50
674;DHT22;319;48.764;9.174;2022-08-01T16:19:40;30.10;56.70
674;DHT22;319;48.764;9.174;2022-08-01T16:22:07;30.10;56.50
674;DHT22;319;48.764;9.174;2022-08-01T16:24:34;29.90;56.80
674;DHT22;319;48.764;9.174;2022-08-01T16:27:00;29.80;57.10
674;DHT22;319;48.764;9.174;2022-08-01T16:29:27;29.80;57.10
674;DHT22;319;48.764;9.174;2022-08-01T16:31:55;29.70;57.20
674;DHT22;319;48.764;9.174;2022-08-01T16:34:22;29.70;57.70
674;DHT22;319;48.764;9.174;2022-08-01T16:36:50;29.50;57.50
674;DHT22;319;48.764;9.174;2022-08-01T16:39:17;29.40;57.70
674;DHT22;319;48.764;9.174;2022-08-01T16:41:44;29.40;57.90
674;DHT22;319;48.764;9.174;2022-08-01T16:44:11;29.50;57.90
674;DHT22;319;48.764;9.174;2022-08-01T16:46:38;29.40;57.90